Time;durP1;ratioP1;P1;durP2;ratioP2;P2;SDS_P1;SDS_P2;PMS_P1;PMS_P2;Temp;Humidity;BMP_temperature;BMP_pressure;BME280_temperature;BME280_humidity;BME280_pressure;Samples;Min_cycle;Max_cycle;Signal;HPM_P1;HPM_P2
2022/09/11 00:00:52;;;;;;;22.05;13.95;;;;;;;14.13;81.95;100951.90;1680885;83;21084;-92
2022/09/11 00:03:23;;;;;;;20.12;14.78;;;;;;;14.15;82.05;100955.45;1680287;83;20985;-95
2022/09/11 00:05:50;;;;;;;21.33;16.00;;;;;;;14.15;81.87;100951.89;1676466;83;21089;-94
2022/09/11 00:08:18;;;;;;;20.43;15.00;;;;;;;14.11;81.85;100952.28;1680322;83;21767;-93
2022/09/11 00:10:47;;;;;;;19.17;13.75;;;;;;;14.09;81.86;100951.81;1680104;83;21065;-94
2022/09/11 00:13:20;;;;;;;20.50;13.58;;;;;;;14.04;81.75;100957.47;1677656;83;21523;-96
2022/09/11 00:15:49;;;;;;;23.42;14.43;;;;;;;14.00;81.94;100951.24;1674444;83;21727;-92
2022/09/11 00:18:20;;;;;;;19.07;13.15;;;;;;;14.02;82.10;100948.21;1676875;84;21156;-95
2022/09/11 00:20:54;;;;;;;17.82;14.23;;;;;;;14.05;82.16;100940.30;1675900;83;21782;-96
2022/09/11 00:23:24;;;;;;;21.27;14.83;;;;;;;14.07;82.14;100941.20;1676661;83;21547;-96
2022/09/11 00:25:51;;;;;;;22.13;14.43;;;;;;;14.09;82.24;100943.88;1676317;83;21153;-94
2022/09/11 00:28:20;;;;;;;21.00;14.15;;;;;;;14.12;82.22;100938.63;1676351;83;21073;-93
2022/09/11 00:30:47;;;;;;;18.95;14.45;;;;;;;14.10;82.16;100937.28;1677309;83;21084;-96
2022/09/11 00:33:14;;;;;;;19.15;14.40;;;;;;;14.11;82.22;100940.37;1657505;85;22041;-96
2022/09/11 00:35:44;;;;;;;17.77;14.43;;;;;;;14.12;82.11;100941.28;1678965;84;20989;-94
2022/09/11 00:38:10;;;;;;;21.12;14.50;;;;;;;14.10;82.15;100941.70;1655454;85;21085;-95
2022/09/11 00:40:47;;;;;;;21.17;15.90;;;;;;;14.09;82.13;100943.43;1676790;84;21061;-94
2022/09/11 00:43:15;;;;;;;21.30;15.03;;;;;;;14.07;82.14;100939.00;1676346;84;21076;-93
2022/09/11 00:45:44;;;;;;;21.48;14.87;;;;;;;14.06;82.16;100935.88;1676610;84;21766;-95
2022/09/11 00:48:14;;;;;;;20.17;14.83;;;;;;;14.07;82.30;100937.23;1664344;84;21062;-95
2022/09/11 00:50:42;;;;;;;18.10;14.75;;;;;;;14.08;82.36;100935.50;1670411;84;21097;-95
2022/09/11 00:53:10;;;;;;;22.95;15.32;;;;;;;14.07;82.31;100934.58;1680567;83;21046;-93
2022/09/11 00:55:37;;;;;;;21.02;14.40;;;;;;;14.07;82.31;100934.58;1676475;83;21073;-94
2022/09/11 00:58:11;;;;;;;18.32;14.95;;;;;;;14.08;82.33;100938.14;1678068;83;21742;-93
2022/09/11 01:00:38;;;;;;;20.52;14.45;;;;;;;14.06;82.40;100935.47;1679114;83;21105;-93
2022/09/11 01:03:05;;;;;;;16.82;14.13;;;;;;;14.10;82.48;100935.96;1680148;83;21064;-93
2022/09/11 01:05:33;;;;;;;17.35;13.60;;;;;;;14.13;82.50;100933.37;1679357;84;21081;-94
2022/09/11 01:08:02;;;;;;;19.50;14.70;;;;;;;14.13;82.44;100928.07;1655831;85;21141;-94
2022/09/11 01:10:43;;;;;;;19.65;14.33;;;;;;;14.15;82.35;100930.30;1671312;84;21781;-94
2022/09/11 01:13:24;;;;;;;18.30;13.50;;;;;;;14.15;82.40;100926.74;1670227;84;21519;-96
2022/09/11 01:16:07;;;;;;;18.95;15.23;;;;;;;14.14;82.26;100925.86;1674706;84;21367;-94
2022/09/11 01:19:07;;;;;;;24.67;16.80;;;;;;;14.10;82.35;100918.75;1680442;84;21089;-94
2022/09/11 01:22:07;;;;;;;114.85;83.27;;;;;;;14.10;82.27;100919.20;1665620;85;20996;-93
2022/09/11 01:24:57;;;;;;;73.28;50.45;;;;;;;14.09;82.38;100918.28;1673150;84;21762;-93
2022/09/11 01:27:36;;;;;;;294.07;151.12;;;;;;;14.08;82.30;100918.30;1673086;84;21094;-94
2022/09/11 01:30:06;;;;;;;164.88;94.40;;;;;;;14.08;82.40;100916.97;1680088;84;21323;-93
2022/09/11 01:32:47;;;;;;;332.80;196.00;;;;;;;14.09;82.45;100915.64;1671286;84;22307;-95
2022/09/11 01:35:51;;;;;;;321.95;209.45;;;;;;;14.10;82.33;100921.41;1682066;84;21148;-94
2022/09/11 01:38:42;;;;;;;;;;;;;;;14.10;82.36;100911.26;1682638;83;22203;-94
2022/09/11 01:41:16;;;;;;;135.90;89.95;;;;;;;14.10;82.31;100912.58;1679982;84;20212;-94
2022/09/11 01:43:54;;;;;;;70.57;52.25;;;;;;;14.09;82.28;100910.34;1679554;83;21108;-93
2022/09/11 01:46:23;;;;;;;54.30;38.05;;;;;;;14.09;82.32;100906.81;1679853;84;21606;-93
2022/09/11 01:49:10;;;;;;;28.15;22.48;;;;;;;14.10;82.45;100904.20;1679939;84;22141;-93
2022/09/11 01:51:37;;;;;;;31.70;25.05;;;;;;;14.12;82.47;100897.61;1678206;83;22643;-94
2022/09/11 01:54:06;;;;;;;31.23;23.25;;;;;;;14.14;82.47;100898.52;1679944;83;21053;-94
2022/09/11 01:56:37;;;;;;;24.70;19.70;;;;;;;14.15;82.47;100896.30;1676853;83;21086;-95
2022/09/11 01:59:05;;;;;;;96.30;79.50;;;;;;;14.15;82.42;100891.92;1674733;83;21341;-94
2022/09/11 02:01:34;;;;;;;63.45;53.98;;;;;;;14.14;82.36;100895.42;1676820;83;21076;-93
2022/09/11 02:04:17;;;;;;;47.98;42.03;;;;;;;14.17;82.55;100896.80;1679640;83;21825;-93
2022/09/11 02:06:52;;;;;;;55.70;49.13;;;;;;;14.22;82.56;100891.55;1676582;83;28691;-95
2022/09/11 02:09:21;;;;;;;44.13;39.33;;;;;;;14.25;82.53;100896.00;1679267;83;21622;-91
2022/09/11 02:11:49;;;;;;;30.65;23.80;;;;;;;14.28;82.56;100894.25;1680123;83;21073;-93
2022/09/11 02:14:23;;;;;;;28.85;22.60;;;;;;;14.29;82.44;100892.08;1680251;83;21069;-92
2022/09/11 02:17:16;;;;;;;25.40;19.77;;;;;;;14.29;82.43;100888.55;1680276;83;21936;-93
2022/09/11 02:19:42;;;;;;;28.20;22.10;;;;;;;14.32;82.48;100896.09;1678895;84;21089;-93
2022/09/11 02:22:10;;;;;;;32.17;21.30;;;;;;;14.38;82.57;100899.25;1681155;84;21157;-94
2022/09/11 02:24:37;;;;;;;23.73;18.98;;;;;;;14.39;82.43;100899.24;1680546;83;21068;-95
2022/09/11 02:27:07;;;;;;;23.35;19.45;;;;;;;14.42;82.33;100902.38;1680546;84;21053;-94
2022/09/11 02:29:36;;;;;;;25.10;18.62;;;;;;;14.37;82.08;100898.78;1680241;83;21712;-94
2022/09/11 02:32:03;;;;;;;24.67;19.77;;;;;;;14.32;82.13;100896.09;1677610;83;21062;-95
2022/09/11 02:34:33;;;;;;;23.75;19.80;;;;;;;14.29;82.12;100896.49;1678900;83;21080;-94
2022/09/11 02:37:30;;;;;;;27.82;19.12;;;;;;;14.27;82.17;100889.84;1679442;83;21096;-94
2022/09/11 02:40:09;;;;;;;23.55;18.15;;;;;;;14.28;82.30;100898.23;1680658;83;21104;-94
2022/09/11 02:43:00;;;;;;;23.80;18.80;;;;;;;14.27;82.17;100899.11;1680836;83;21790;-93
2022/09/11 02:46:09;;;;;;;25.72;18.62;;;;;;;14.24;82.15;100904.80;1653917;83;21081;-93
2022/09/11 02:48:42;;;;;;;25.12;18.60;;;;;;;14.24;82.35;100903.03;1678529;83;21096;-93
2022/09/11 02:51:29;;;;;;;29.85;18.98;;;;;;;14.19;82.21;100896.38;1671870;83;21073;-95
2022/09/11 02:54:19;;;;;;;25.77;18.52;;;;;;;14.20;82.42;100894.61;1680366;83;20972;-93
2022/09/11 02:56:57;;;;;;;26.65;17.87;;;;;;;14.24;82.47;100892.89;1679541;83;21717;-94
2022/09/11 02:59:31;;;;;;;24.65;18.27;;;;;;;14.25;82.49;100894.69;1661366;84;21128;-95
2022/09/11 03:02:00;;;;;;;24.23;17.55;;;;;;;14.26;82.53;100900.41;1680237;83;21072;-94
2022/09/11 03:04:26;;;;;;;20.08;16.42;;;;;;;14.26;82.40;100903.06;1680062;84;21061;-95
2022/09/11 03:06:53;;;;;;;23.05;18.55;;;;;;;14.25;82.44;100891.59;1680401;84;21104;-93
2022/09/11 03:09:20;;;;;;;21.07;16.35;;;;;;;14.21;82.38;100893.75;1680168;83;21831;-94
2022/09/11 03:11:47;;;;;;;21.50;16.27;;;;;;;14.19;82.45;100898.14;1680031;83;21025;-95
2022/09/11 03:14:14;;;;;;;19.98;16.45;;;;;;;14.19;82.53;100903.44;1680007;83;21121;-94
2022/09/11 03:16:41;;;;;;;24.67;17.67;;;;;;;14.22;82.69;100906.55;1680079;83;21065;-93
2022/09/11 03:19:08;;;;;;;24.85;17.62;;;;;;;14.20;82.65;100906.08;1680397;83;21084;-94
2022/09/11 03:21:36;;;;;;;24.82;18.62;;;;;;;14.23;82.77;100899.04;1680322;83;21743;-94
2022/09/11 03:24:03;;;;;;;22.20;17.75;;;;;;;14.25;82.68;100898.21;1680260;83;21049;-95
2022/09/11 03:26:31;;;;;;;21.07;16.23;;;;;;;14.22;82.68;100903.45;1678452;83;21514;-93
2022/09/11 03:28:58;;;;;;;22.32;17.35;;;;;;;14.24;82.71;100899.06;1677677;83;21065;-92
2022/09/11 03:31:25;;;;;;;26.12;17.73;;;;;;;14.24;82.65;100898.19;1680094;83;21092;-93
2022/09/11 03:33:52;;;;;;;20.90;16.42;;;;;;;14.24;82.66;100900.39;1679695;83;21818;-93
2022/09/11 03:36:19;;;;;;;28.02;16.85;;;;;;;14.25;82.59;100903.95;1679930;83;21061;-93
2022/09/11 03:38:46;;;;;;;24.50;17.20;;;;;;;14.22;82.53;100906.10;1680149;83;21609;-93
2022/09/11 03:41:14;;;;;;;21.00;16.10;;;;;;;14.24;82.55;100900.83;1680468;83;21065;-96
2022/09/11 03:43:41;;;;;;;27.75;16.42;;;;;;;14.19;82.47;100900.79;1680121;83;21053;-94
2022/09/11 03:46:07;;;;;;;20.40;14.75;;;;;;;14.19;82.53;100900.79;1680157;83;21708;-92
2022/09/11 03:48:34;;;;;;;24.52;16.10;;;;;;;14.17;82.48;100905.14;1678566;83;21622;-94
2022/09/11 03:51:04;;;;;;;17.92;15.03;;;;;;;14.19;82.50;100906.97;1679999;83;22452;-95
2022/09/11 03:53:31;;;;;;;22.55;14.68;;;;;;;14.19;82.48;100910.94;1680158;83;21045;-95
2022/09/11 03:56:03;;;;;;;19.27;15.25;;;;;;;14.17;82.41;100907.80;1680216;84;21690;-95
2022/09/11 03:58:30;;;;;;;16.60;13.78;;;;;;;14.19;82.43;100907.41;1680371;83;21812;-95
2022/09/11 04:00:57;;;;;;;20.82;14.53;;;;;;;14.19;82.45;100912.70;1667288;83;21097;-95
2022/09/11 04:03:24;;;;;;;20.52;14.50;;;;;;;14.17;82.36;100906.06;1661783;85;21005;-93
2022/09/11 04:06:00;;;;;;;17.73;13.22;;;;;;;14.19;82.18;100915.35;1650048;85;21092;-94
2022/09/11 04:08:32;;;;;;;23.87;14.15;;;;;;;14.14;82.08;100916.59;1646562;85;21089;-96
2022/09/11 04:10:57;;;;;;;20.32;13.58;;;;;;;14.06;81.90;100919.59;1646335;85;21844;-95
2022/09/11 04:13:33;;;;;;;16.93;12.37;;;;;;;14.03;82.00;100918.22;1646001;85;21070;-95
2022/09/11 04:16:09;;;;;;;17.92;13.08;;;;;;;14.00;82.05;100920.80;1665566;85;21438;-95
2022/09/11 04:18:37;;;;;;;16.85;13.32;;;;;;;13.95;82.05;100917.23;1646590;85;21168;-95
2022/09/11 04:21:08;;;;;;;17.27;12.43;;;;;;;13.95;82.22;100916.78;1650050;85;21189;-95
2022/09/11 04:23:35;;;;;;;17.42;12.25;;;;;;;13.93;82.26;100915.88;1661118;85;21871;-92
2022/09/11 04:26:01;;;;;;;19.85;13.50;;;;;;;13.91;82.26;100918.95;1646553;85;21101;-94
2022/09/11 04:28:30;;;;;;;27.90;13.65;;;;;;;13.90;82.31;100918.91;1646866;85;21579;-96
2022/09/11 04:31:02;;;;;;;23.57;12.23;;;;;;;13.89;82.30;100921.09;1647443;85;21082;-94
2022/09/11 04:33:29;;;;;;;21.52;14.50;;;;;;;13.86;82.43;100919.30;1647620;85;21186;-95
2022/09/11 04:35:56;;;;;;;48.87;34.83;;;;;;;13.85;82.33;100919.27;1664934;85;21737;-94
2022/09/11 04:38:23;;;;;;;229.53;195.53;;;;;;;13.84;82.47;100920.16;1654571;85;21017;-94
2022/09/11 04:40:52;;;;;;;52.85;47.05;;;;;;;13.88;82.52;100917.56;1657905;85;21114;-95
2022/09/11 04:43:19;;;;;;;21.85;17.73;;;;;;;13.86;82.39;100921.95;1651532;85;21152;-93
2022/09/11 04:45:46;;;;;;;18.48;13.83;;;;;;;13.89;82.62;100922.00;1660381;85;21082;-94
2022/09/11 04:48:12;;;;;;;16.60;12.33;;;;;;;13.91;82.50;100920.27;1666010;85;21753;-94
2022/09/11 04:50:40;;;;;;;24.02;13.25;;;;;;;13.94;82.59;100918.97;1646561;85;21750;-93
2022/09/11 04:53:06;;;;;;;18.00;11.85;;;;;;;13.97;82.57;100921.66;1661297;85;21414;-94
2022/09/11 04:55:33;;;;;;;18.48;12.78;;;;;;;14.00;82.52;100927.42;1674055;85;21362;-95
2022/09/11 04:58:00;;;;;;;23.18;12.13;;;;;;;14.00;82.28;100923.45;1662424;85;21569;-94
2022/09/11 05:00:27;;;;;;;21.33;12.07;;;;;;;14.00;82.25;100922.13;1647461;84;21735;-95
2022/09/11 05:02:54;;;;;;;21.82;12.98;;;;;;;14.00;82.12;100923.45;1678153;83;21074;-95
2022/09/11 05:05:21;;;;;;;16.20;11.70;;;;;;;14.03;82.10;100922.63;1675202;83;21587;-95
2022/09/11 05:07:50;;;;;;;19.45;11.68;;;;;;;14.06;82.13;100927.53;1674797;83;21579;-96
2022/09/11 05:10:19;;;;;;;16.87;11.35;;;;;;;14.13;82.14;100930.72;1674967;83;21644;-96
2022/09/11 05:12:46;;;;;;;16.90;11.48;;;;;;;14.20;82.10;100928.58;1674804;83;21753;-96
2022/09/11 05:15:12;;;;;;;19.02;11.12;;;;;;;14.23;81.88;100926.84;1677714;83;21073;-95
2022/09/11 05:17:39;;;;;;;15.32;11.28;;;;;;;14.24;81.72;100933.92;1678761;83;21084;-96
2022/09/11 05:20:07;;;;;;;17.25;9.98;;;;;;;14.24;81.65;100930.84;1653002;85;21081;-96
2022/09/11 05:22:33;;;;;;;15.32;10.82;;;;;;;14.23;81.58;100934.38;1681716;83;21113;-95
2022/09/11 05:25:01;;;;;;;20.08;10.53;;;;;;;14.26;81.63;100928.21;1699918;83;21731;-94
2022/09/11 05:27:28;;;;;;;16.62;10.23;;;;;;;14.34;81.67;100935.81;1683680;83;21112;-95
2022/09/11 05:29:54;;;;;;;13.80;10.53;;;;;;;14.42;81.52;100936.81;1678753;83;21076;-94
2022/09/11 05:32:23;;;;;;;13.93;9.60;;;;;;;14.49;81.43;100937.75;1674568;83;21161;-95
2022/09/11 05:34:50;;;;;;;16.32;9.55;;;;;;;14.55;81.25;100938.73;1630464;87;21120;-94
2022/09/11 05:37:16;;;;;;;13.75;8.88;;;;;;;14.63;81.10;100934.00;1625572;87;21793;-95
2022/09/11 05:39:43;;;;;;;13.25;8.83;;;;;;;14.72;81.06;100929.69;1623480;86;21082;-96
2022/09/11 05:42:10;;;;;;;15.48;8.78;;;;;;;14.82;80.85;100929.78;1646997;85;21165;-96
2022/09/11 05:44:37;;;;;;;11.93;8.70;;;;;;;14.83;80.24;100928.48;1628717;86;21085;-96
2022/09/11 05:47:04;;;;;;;11.12;8.45;;;;;;;14.84;80.14;100930.23;1621373;87;21098;-95
2022/09/11 05:49:31;;;;;;;13.28;8.13;;;;;;;14.92;80.33;100923.69;1627975;85;21759;-96
2022/09/11 05:51:57;;;;;;;15.72;8.13;;;;;;;14.95;80.01;100928.59;1626639;86;21085;-96
2022/09/11 05:54:24;;;;;;;15.13;8.65;;;;;;;14.95;79.84;100928.59;1619314;86;21118;-96
2022/09/11 05:56:51;;;;;;;13.18;8.68;;;;;;;14.94;79.74;100929.48;1598442;88;21110;-95
2022/09/11 05:59:19;;;;;;;11.10;8.28;;;;;;;14.99;79.70;100926.86;1643363;85;21113;-95
2022/09/11 06:01:46;;;;;;;15.65;8.20;;;;;;;15.04;79.67;100923.82;1682418;84;21770;-94
2022/09/11 06:04:20;;;;;;;12.13;7.70;;;;;;;15.05;79.45;100926.91;1632054;86;21117;-93
2022/09/11 06:06:48;;;;;;;12.88;8.40;;;;;;;15.06;79.28;100925.17;1671830;84;21128;-94
2022/09/11 06:09:15;;;;;;;15.03;9.28;;;;;;;15.01;78.94;100930.41;1646286;86;21066;-93
2022/09/11 06:11:42;;;;;;;14.00;8.93;;;;;;;14.99;79.11;100930.83;1636164;87;21153;-91
2022/09/11 06:14:11;;;;;;;18.87;8.65;;;;;;;15.00;79.09;100931.71;1635158;86;21716;-92
2022/09/11 06:16:38;;;;;;;14.73;8.00;;;;;;;14.97;78.95;100932.58;1680579;84;21117;-93
2022/09/11 06:19:05;;;;;;;14.23;8.15;;;;;;;14.93;78.89;100934.31;1670994;83;21140;-93
2022/09/11 06:21:41;;;;;;;15.23;9.48;;;;;;;14.94;78.89;100932.13;1678477;84;21089;-92
2022/09/11 06:24:30;;;;;;;15.58;8.68;;;;;;;14.91;78.80;100937.38;1676495;84;22264;-93
2022/09/11 06:27:06;;;;;;;12.13;8.63;;;;;;;14.91;78.77;100940.48;1645226;86;21785;-93
2022/09/11 06:29:43;;;;;;;13.85;8.60;;;;;;;14.93;78.81;100940.06;1619936;87;21744;-94
2022/09/11 06:32:10;;;;;;;32.88;26.60;;;;;;;14.97;78.81;100943.19;1624997;86;21161;-93
2022/09/11 06:34:37;;;;;;;19.90;9.80;;;;;;;15.01;78.78;100938.81;1622985;87;21127;-93
2022/09/11 06:37:04;;;;;;;11.50;8.38;;;;;;;15.14;78.75;100939.38;1630039;87;21132;-93
2022/09/11 06:39:33;;;;;;;17.48;8.38;;;;;;;15.27;78.55;100938.60;1624631;86;21750;-93
2022/09/11 06:42:05;;;;;;;12.18;7.35;;;;;;;15.33;78.29;100940.42;1613749;87;21607;-94
2022/09/11 06:44:32;;;;;;;15.08;8.55;;;;;;;15.34;78.12;100945.74;1592864;87;21220;-95
2022/09/11 06:46:59;;;;;;;15.45;8.45;;;;;;;15.34;78.06;100947.52;1610699;86;21089;-94
2022/09/11 06:49:29;;;;;;;16.80;8.20;;;;;;;15.38;78.12;100946.66;1624544;87;21289;-93
2022/09/11 06:52:23;;;;;;;16.52;9.20;;;;;;;15.42;78.02;100946.25;1624350;86;22482;-92
2022/09/11 06:54:53;;;;;;;14.00;7.37;;;;;;;15.55;78.16;100938.84;1678390;83;20882;-93
2022/09/11 06:57:20;;;;;;;12.53;8.38;;;;;;;15.77;78.05;100941.25;1680384;83;20919;-93
2022/09/11 06:59:46;;;;;;;14.65;7.97;;;;;;;15.98;78.03;100943.14;1629966;86;21504;-94
2022/09/11 07:02:13;;;;;;;16.93;9.00;;;;;;;16.20;77.86;100939.26;1619519;87;21084;-94
2022/09/11 07:04:40;;;;;;;15.88;7.58;;;;;;;16.39;77.52;100938.93;1685271;83;22667;-95
2022/09/11 07:07:07;;;;;;;12.43;7.92;;;;;;;16.56;76.98;100949.17;1679614;83;21001;-93
2022/09/11 07:09:34;;;;;;;12.98;7.35;;;;;;;16.69;76.72;100943.46;1689741;83;20993;-96
2022/09/11 07:12:01;;;;;;;29.30;15.75;;;;;;;16.80;76.33;100946.13;1689875;84;22031;-93
2022/09/11 07:14:28;;;;;;;24.75;13.85;;;;;;;16.84;75.81;100946.64;1690756;83;21030;-93
2022/09/11 07:16:55;;;;;;;18.02;10.70;;;;;;;16.85;75.69;100940.42;1677832;83;21743;-94
2022/09/11 07:19:24;;;;;;;12.03;5.70;;;;;;;16.90;75.19;100941.33;1687000;83;20996;-94
2022/09/11 07:21:52;;;;;;;13.00;6.78;;;;;;;16.88;74.65;100947.09;1684154;83;21140;-95
2022/09/11 07:24:19;;;;;;;11.60;5.92;;;;;;;16.88;74.55;100936.00;1687276;83;21048;-94
2022/09/11 07:26:46;;;;;;;11.20;6.10;;;;;;;16.99;74.71;100939.14;1685043;83;21104;-95
2022/09/11 07:29:13;;;;;;;8.73;4.17;;;;;;;17.13;74.52;100941.35;1628238;86;21768;-87
2022/09/11 07:31:41;;;;;;;6.05;3.35;;;;;;;17.21;73.26;100936.03;1687094;83;21089;-92
2022/09/11 07:34:09;;;;;;;8.55;3.08;;;;;;;17.23;73.02;100927.61;1688167;83;21128;-94
2022/09/11 07:36:36;;;;;;;4.12;2.83;;;;;;;17.23;72.24;100928.52;1686259;83;21108;-87
2022/09/11 07:39:03;;;;;;;6.33;2.95;;;;;;;17.30;71.81;100932.05;1687469;83;21527;-87
2022/09/11 07:41:31;;;;;;;9.08;3.45;;;;;;;17.35;71.51;100936.06;1686250;83;21179;-89
2022/09/11 07:43:59;;;;;;;8.50;3.45;;;;;;;17.49;71.44;100927.19;1688423;84;21071;-88
2022/09/11 07:46:26;;;;;;;7.67;3.25;;;;;;;17.64;71.19;100931.61;1689041;83;20969;-92
2022/09/11 07:48:54;;;;;;;11.95;3.33;;;;;;;17.75;70.51;100933.36;1688339;83;21067;-88
2022/09/11 07:51:21;;;;;;;6.97;3.05;;;;;;;17.77;70.13;100928.91;1679365;83;21069;-96
2022/09/11 07:53:50;;;;;;;12.80;10.13;;;;;;;17.81;69.53;100928.02;1657151;84;21779;-96
2022/09/11 07:56:22;;;;;;;6.62;3.40;;;;;;;17.86;69.53;100932.47;1646026;84;21133;-88
2022/09/11 07:58:51;;;;;;;11.35;3.95;;;;;;;17.99;69.12;100932.45;1686472;83;21080;-87
2022/09/11 08:01:24;;;;;;;7.30;3.45;;;;;;;18.01;68.78;100936.00;1680209;83;21084;-89
2022/09/11 08:03:59;;;;;;;6.83;3.50;;;;;;;18.03;68.01;100939.55;1680516;83;21017;-92
2022/09/11 08:06:30;;;;;;;8.73;4.72;;;;;;;17.95;67.51;100922.71;1679254;84;22613;-90
2022/09/11 08:09:03;;;;;;;7.20;3.50;;;;;;;17.91;67.00;100922.28;1678596;83;21002;-87
2022/09/11 08:11:30;;;;;;;5.58;3.08;;;;;;;17.97;67.11;100930.25;1680153;84;20998;-88
2022/09/11 08:13:57;;;;;;;6.70;3.22;;;;;;;17.98;66.97;100930.67;1661753;84;20996;-91
2022/09/11 08:16:25;;;;;;;13.05;3.33;;;;;;;17.93;66.43;100925.37;1679456;83;21782;-88
2022/09/11 08:18:53;;;;;;;5.33;2.35;;;;;;;17.87;65.43;100934.72;1661776;85;22974;-91
2022/09/11 08:21:23;;;;;;;6.22;2.87;;;;;;;17.71;65.56;100930.27;1676076;84;20994;-91
2022/09/11 08:23:51;;;;;;;8.15;3.22;;;;;;;17.74;66.17;100929.82;1678468;83;21041;-88
2022/09/11 08:26:24;;;;;;;5.65;3.00;;;;;;;17.85;66.36;100937.38;1681766;83;21499;-88
2022/09/11 08:28:54;;;;;;;6.50;3.15;;;;;;;17.88;65.99;100932.48;1676243;84;21547;-89
2022/09/11 08:31:26;;;;;;;11.10;3.52;;;;;;;17.90;66.00;100937.80;1630392;86;21753;-88
2022/09/11 08:33:54;;;;;;;9.45;4.70;;;;;;;17.86;65.49;100939.59;1627185;86;21066;-89
2022/09/11 08:36:21;;;;;;;7.42;3.45;;;;;;;17.78;64.80;100947.55;1622465;86;21384;-89
2022/09/11 08:38:48;;;;;;;12.05;2.75;;;;;;;17.78;65.19;100952.88;1629443;85;21401;-88
2022/09/11 08:41:32;;;;;;;8.43;3.05;;;;;;;17.86;64.67;100940.91;1624796;86;21042;-88
2022/09/11 08:44:25;;;;;;;6.08;3.40;;;;;;;17.91;63.84;100935.14;1623582;86;21658;-88
2022/09/11 08:47:07;;;;;;;5.58;3.35;;;;;;;17.97;63.36;100928.46;1631487;85;21128;-88
2022/09/11 08:49:43;;;;;;;6.75;2.85;;;;;;;18.09;63.42;100917.33;1623726;86;21142;-90
2022/09/11 08:52:12;;;;;;;7.78;2.70;;;;;;;18.14;62.98;100920.42;1628060;86;21153;-90
2022/09/11 08:54:56;;;;;;;5.42;2.90;;;;;;;18.21;62.56;100932.83;1619673;87;21405;-89
2022/09/11 08:57:30;;;;;;;8.08;2.65;;;;;;;18.26;62.25;100933.71;1627033;85;21093;-89
2022/09/11 09:00:22;;;;;;;12.00;2.52;;;;;;;18.31;61.15;100931.47;1620525;87;21135;-90
2022/09/11 09:07:35;;;;;;;5.47;2.55;;;;;;;18.30;60.50;100924.35;1610401;86;21214;-89
2022/09/11 09:10:30;;;;;;;6.37;2.08;;;;;;;18.10;58.45;100942.64;1629825;86;21129;-84
2022/09/11 09:13:05;;;;;;;3.20;2.07;;;;;;;17.81;58.94;100932.92;1609389;86;21965;-84
2022/09/11 09:16:14;;;;;;;6.47;2.20;;;;;;;17.71;59.68;100934.26;1631591;86;21097;-86
2022/09/11 09:18:49;;;;;;;4.92;2.77;;;;;;;17.74;59.78;100944.47;1616487;86;21137;-86
2022/09/11 09:21:23;;;;;;;5.28;2.10;;;;;;;17.74;59.20;100952.45;1619944;86;21630;-86
2022/09/11 09:23:54;;;;;;;6.15;2.15;;;;;;;17.69;58.98;100948.44;1616604;86;21113;-86
2022/09/11 09:26:20;;;;;;;3.35;2.05;;;;;;;17.65;58.81;100950.67;1622375;86;21732;-87
2022/09/11 09:28:50;;;;;;;7.67;2.83;;;;;;;17.66;58.89;100947.55;1620187;86;21397;-87
2022/09/11 09:31:26;;;;;;;4.05;2.50;;;;;;;17.66;59.01;100948.47;1597681;86;21143;-86
2022/09/11 09:34:14;;;;;;;4.05;2.05;;;;;;;17.64;58.86;100940.02;1620344;86;21612;-87
2022/09/11 09:36:58;;;;;;;2.65;2.15;;;;;;;17.65;59.01;100955.12;1608506;86;20951;-87
2022/09/11 09:39:27;;;;;;;4.37;2.00;;;;;;;17.73;59.30;100953.78;1625730;86;21432;-85
2022/09/11 09:42:44;;;;;;;5.58;2.72;;;;;;;17.77;59.07;100950.22;1626371;86;21014;-85
2022/09/11 09:45:50;;;;;;;8.50;2.60;;;;;;;17.74;59.11;100952.91;1571341;86;21103;-88
2022/09/11 09:56:04;;;;;;;5.00;2.15;;;;;;;18.10;57.88;100955.95;1477751;93;21593;-87
2022/09/11 09:59:28;;;;;;;5.78;1.90;;;;;;;18.12;57.56;100950.63;1544158;91;21481;-92
2022/09/11 10:02:02;;;;;;;5.80;2.17;;;;;;;18.20;57.12;100941.70;1512491;93;21135;-90
2022/09/11 10:04:41;;;;;;;7.22;2.27;;;;;;;18.20;56.98;100951.48;1515560;93;21063;-91
2022/09/11 10:07:18;;;;;;;4.08;1.80;;;;;;;18.24;57.38;100953.23;1534877;91;21135;-90
2022/09/11 10:12:40;;;;;;;9.90;6.78;;;;;;;18.19;55.99;100971.05;1563698;89;21125;-89
2022/09/11 10:15:13;;;;;;;4.37;3.40;;;;;;;18.18;55.69;100966.59;1553188;89;21377;-89
2022/09/11 10:17:40;;;;;;;6.17;4.00;;;;;;;18.18;55.52;100959.93;1580646;88;21137;-90
2022/09/11 10:20:47;;;;;;;6.03;2.27;;;;;;;18.17;55.20;100959.47;1577186;88;21162;-86
2022/09/11 10:23:28;;;;;;;4.78;2.00;;;;;;;18.14;55.22;100969.70;1573339;89;22166;-85
2022/09/11 10:25:55;;;;;;;5.92;2.65;;;;;;;18.21;56.03;100954.15;1597643;85;21167;-86
2022/09/11 10:28:31;;;;;;;6.05;2.70;;;;;;;18.33;56.09;100964.33;1616911;87;21957;-85
2022/09/11 10:31:03;;;;;;;6.58;3.25;;;;;;;18.33;55.27;100973.66;1600585;87;21149;-86
2022/09/11 10:33:37;;;;;;;7.70;2.70;;;;;;;18.26;55.20;100963.02;1625756;86;22387;-85
2022/09/11 10:36:08;;;;;;;6.70;3.08;;;;;;;18.15;54.37;100968.83;1609854;86;22872;-86
2022/09/11 10:38:47;;;;;;;6.83;2.80;;;;;;;18.02;55.00;100937.80;1614644;87;21034;-86
2022/09/11 10:41:19;;;;;;;7.10;4.15;;;;;;;18.26;55.39;100964.77;1618937;86;21117;-85
2022/09/11 10:44:06;;;;;;;5.40;2.10;;;;;;;18.28;55.14;100997.63;1618390;86;21390;-86
2022/09/11 10:46:49;;;;;;;6.33;3.05;;;;;;;18.13;54.07;100984.36;1616808;86;21138;-87
2022/09/11 10:49:23;;;;;;;5.50;2.17;;;;;;;18.07;53.22;100987.92;1606887;87;22002;-89
2022/09/11 10:52:13;;;;;;;4.42;1.70;;;;;;;18.03;54.46;100983.49;1623943;86;21071;-87
2022/09/11 10:54:59;;;;;;;5.87;2.20;;;;;;;18.06;54.28;100979.50;1622049;86;21015;-87
2022/09/11 10:57:44;;;;;;;4.00;1.50;;;;;;;18.14;54.21;100973.70;1618316;86;21102;-86
2022/09/11 11:00:22;;;;;;;5.03;1.90;;;;;;;18.21;53.68;100980.80;1615866;86;21114;-87
2022/09/11 11:03:00;;;;;;;2.75;2.00;;;;;;;18.00;53.39;100984.40;1626357;86;21818;-85
2022/09/11 11:05:47;;;;;;;4.28;1.50;;;;;;;17.80;53.44;100977.73;1618101;85;21055;-88
2022/09/11 11:08:28;;;;;;;2.58;1.75;;;;;;;17.75;54.03;100975.50;1613094;86;21556;-85
2022/09/11 11:11:46;;;;;;;3.83;1.35;;;;;;;17.81;53.18;100995.91;1618173;86;21101;-85
2022/09/11 11:14:40;;;;;;;2.75;1.37;;;;;;;17.81;53.03;100983.51;1650416;84;21092;-94
2022/09/11 11:17:41;;;;;;;7.80;3.30;;;;;;;17.85;53.67;100989.75;1620619;86;21763;-95
2022/09/11 11:20:34;;;;;;;3.25;1.85;;;;;;;17.93;52.94;100973.31;1615461;86;21141;-93
2022/09/11 11:23:36;;;;;;;5.10;1.92;;;;;;;17.88;52.46;100975.96;1638276;85;21121;-94
2022/09/11 11:26:23;;;;;;;6.45;1.40;;;;;;;17.68;52.96;100978.63;1628026;86;21110;-92
2022/09/11 11:29:22;;;;;;;3.20;1.60;;;;;;;17.55;53.07;100971.96;1637534;85;21131;-92
2022/09/11 11:32:17;;;;;;;4.55;2.00;;;;;;;17.52;53.40;100980.84;1612156;86;22290;-94
2022/09/11 11:43:09;;;;;;;;;;;;;;;;;;;;;
2022/09/11 11:46:28;;;;;;;5.00;1.90;;;;;;;17.12;52.95;100988.80;1509854;92;22357;-95
2022/09/11 11:49:10;;;;;;;7.15;2.58;;;;;;;16.98;53.13;100963.94;1587846;88;21771;-91
2022/09/11 11:51:58;;;;;;;8.40;2.30;;;;;;;17.06;53.29;101000.73;1579291;87;21663;-91
2022/09/11 11:54:51;;;;;;;10.00;2.45;;;;;;;17.04;53.23;100979.48;1598263;87;21124;-91
2022/09/11 11:57:19;;;;;;;8.50;2.10;;;;;;;17.04;53.38;100970.59;1597993;89;21185;-90
2022/09/11 11:59:54;;;;;;;4.40;1.50;;;;;;;17.12;53.48;100983.48;1559075;89;21139;-95
2022/09/11 12:02:37;;;;;;;4.50;1.95;;;;;;;17.15;53.55;100991.45;1600130;88;21084;-93
2022/09/11 12:05:13;;;;;;;5.20;1.98;;;;;;;17.14;53.39;100990.14;1585442;89;21141;-92
2022/09/11 12:07:47;;;;;;;7.47;2.00;;;;;;;17.13;53.59;100963.08;1597758;88;21113;-95
2022/09/11 12:10:28;;;;;;;;;;;;;;;17.17;53.86;100987.47;1597493;87;21359;-93